createdAt,value
2022-09-13T00:00:01.833Z,22.9
2022-09-13T00:05:01.789Z,22.9
2022-09-13T00:10:01.955Z,22.9
2022-09-13T00:15:02.152Z,22.9
2022-09-13T00:20:02.376Z,22.9
2022-09-13T00:25:02.555Z,22.9
2022-09-13T00:30:02.654Z,22.9
2022-09-13T00:35:01.889Z,22.9
2022-09-13T00:40:02.142Z,22.9
2022-09-13T00:45:01.804Z,22.9
2022-09-13T00:50:01.914Z,22.9
2022-09-13T00:55:02.109Z,22.9
2022-09-13T01:00:02.621Z,22.9
2022-09-13T01:05:02.342Z,22.9
2022-09-13T01:10:02.497Z,22.9
2022-09-13T01:15:01.730Z,22.9
2022-09-13T01:20:01.869Z,22.9
2022-09-13T01:25:01.937Z,22.9
2022-09-13T01:30:02.980Z,22.9
2022-09-13T01:35:02.214Z,22.9
2022-09-13T01:40:02.445Z,22.9
2022-09-13T01:45:02.562Z,22.9
2022-09-13T01:50:01.662Z,22.9
2022-09-13T01:55:02.006Z,22.9
2022-09-13T02:00:02.236Z,22.9
2022-09-13T02:05:02.310Z,22.9
2022-09-13T02:10:02.472Z,22.9
2022-09-13T02:15:01.575Z,22.9
2022-09-13T02:20:01.935Z,22.9
2022-09-13T02:25:02.287Z,22.9
2022-09-13T02:30:02.345Z,22.9
2022-09-13T02:35:02.345Z,22.9
2022-09-13T02:40:02.543Z,22.9
2022-09-13T02:45:02.514Z,22.9
2022-09-13T02:50:02.389Z,22.9
2022-09-13T02:55:01.865Z,22.9
2022-09-13T03:00:03.583Z,22.9
2022-09-13T03:05:03.136Z,22.9
2022-09-13T03:10:02.690Z,22.9
2022-09-13T03:15:02.995Z,22.9
2022-09-13T03:20:02.670Z,22.9
2022-09-13T03:25:01.961Z,22.9
2022-09-13T03:30:02.033Z,22.9
2022-09-13T03:35:03.004Z,22.9
2022-09-13T03:40:03.606Z,22.9
2022-09-13T03:45:03.461Z,22.9
2022-09-13T03:50:02.061Z,22.9
2022-09-13T03:55:02.718Z,22.9
2022-09-13T04:00:02.317Z,22.9
2022-09-13T04:05:03.531Z,22.9
2022-09-13T04:10:03.051Z,22.9
2022-09-13T04:15:03.197Z,22.9
2022-09-13T04:20:02.906Z,22.9
2022-09-13T04:25:02.917Z,22.9
2022-09-13T04:30:02.366Z,22.9
2022-09-13T04:35:03.160Z,22.9
2022-09-13T04:40:03.345Z,22.9
2022-09-13T04:45:02.504Z,22.9
2022-09-13T04:50:02.593Z,22.9
2022-09-13T04:55:01.811Z,22.9
2022-09-13T05:00:02.488Z,22.9
2022-09-13T05:05:03.094Z,22.9
2022-09-13T05:10:03.544Z,22.9
2022-09-13T05:15:06.423Z,22.9
2022-09-13T05:20:03.110Z,22.9
2022-09-13T05:25:01.925Z,22.9
2022-09-13T05:30:02.293Z,22.9
2022-09-13T05:35:03.617Z,22.9
2022-09-13T05:40:12.198Z,22.9
2022-09-13T05:45:04.648Z,22.9
2022-09-13T05:50:10.123Z,22.9
2022-09-13T05:55:01.798Z,22.9
2022-09-13T06:00:02.689Z,22.9
2022-09-13T06:05:02.763Z,22.9
2022-09-13T06:10:02.915Z,16.6
2022-09-13T06:15:03.586Z,16.7
2022-09-13T06:20:02.657Z,16.8
2022-09-13T06:25:02.762Z,16.9
2022-09-13T06:30:04.483Z,16.9
2022-09-13T06:35:02.991Z,16.9
2022-09-13T06:40:03.068Z,16.9
2022-09-13T06:45:03.537Z,16.9
2022-09-13T06:50:03.092Z,17.2
2022-09-13T06:55:02.797Z,17.4
2022-09-13T07:00:01.800Z,17.5
2022-09-13T07:05:04.049Z,17.8
2022-09-13T07:10:03.173Z,17.9
2022-09-13T07:15:04.746Z,18
2022-09-13T07:20:02.949Z,18.1
2022-09-13T07:25:03.007Z,18.3
2022-09-13T07:30:04.448Z,18.5
2022-09-13T07:35:04.289Z,18.6
2022-09-13T07:40:03.307Z,18.5
2022-09-13T07:45:03.435Z,18.6
2022-09-13T07:50:02.282Z,18.6
2022-09-13T07:55:02.428Z,18.8
2022-09-13T08:00:02.680Z,19
2022-09-13T08:05:03.425Z,19.1
2022-09-13T08:10:03.442Z,19.3
2022-09-13T08:15:03.298Z,19.5
2022-09-13T08:20:02.103Z,19.6
2022-09-13T08:25:02.190Z,20.1
2022-09-13T08:30:02.524Z,20.1
2022-09-13T08:35:03.229Z,19.9
2022-09-13T08:40:04.278Z,19.8
2022-09-13T08:45:04.750Z,19.8
2022-09-13T08:50:02.118Z,20.1
2022-09-13T08:55:02.210Z,20.4
2022-09-13T09:00:02.836Z,20.6
2022-09-13T09:05:03.000Z,20.8
2022-09-13T09:10:03.702Z,20.7
2022-09-13T09:15:03.800Z,20.6
2022-09-13T09:20:01.984Z,20.4
2022-09-13T09:25:02.372Z,20.6
2022-09-13T09:30:03.174Z,21.1
2022-09-13T09:35:03.149Z,21.3
2022-09-13T09:40:03.516Z,21.7
2022-09-13T09:45:04.418Z,21.5
2022-09-13T09:50:01.932Z,21
2022-09-13T09:55:02.374Z,20.4
2022-09-13T10:00:02.943Z,20.7
2022-09-13T10:05:03.280Z,20.7
2022-09-13T10:10:03.547Z,20.5
2022-09-13T10:15:03.434Z,20.8
2022-09-13T10:20:02.347Z,21.4
2022-09-13T10:25:01.998Z,21.3
2022-09-13T10:30:03.574Z,21.3
2022-09-13T10:35:03.185Z,20.8
2022-09-13T10:40:03.518Z,20.4
2022-09-13T10:45:03.651Z,20.9
2022-09-13T10:50:02.223Z,20.9
2022-09-13T10:55:02.510Z,20.9
2022-09-13T11:00:05.190Z,20.9
2022-09-13T11:05:03.916Z,20.9
2022-09-13T11:10:02.907Z,20.9
2022-09-13T11:15:03.946Z,20.9
2022-09-13T11:20:04.193Z,20.9
2022-09-13T11:25:02.595Z,20.9
2022-09-13T11:30:03.158Z,20.9
2022-09-13T11:35:18.550Z,20.9
2022-09-13T11:40:03.180Z,20.9
2022-09-13T11:45:03.436Z,20.9
2022-09-13T11:50:03.135Z,20.9
2022-09-13T11:55:02.779Z,20.9
2022-09-13T12:00:02.787Z,20.9
2022-09-13T12:05:21.359Z,20.9
2022-09-13T12:10:03.003Z,20.9
2022-09-13T12:15:03.513Z,20.9
2022-09-13T12:20:02.279Z,20.9
2022-09-13T12:25:02.568Z,20.9
2022-09-13T12:30:02.693Z,20.9
2022-09-13T12:35:03.414Z,20.9
2022-09-13T12:40:03.680Z,20.9
2022-09-13T12:45:03.412Z,20.9
2022-09-13T12:55:02.185Z,20.9
2022-09-13T13:00:02.379Z,20.9
2022-09-13T13:05:03.289Z,20.9
2022-09-13T13:10:03.578Z,20.9
2022-09-13T13:15:03.412Z,20.9
2022-09-13T13:20:02.031Z,20.9
2022-09-13T13:25:02.166Z,20.9
2022-09-13T13:30:02.843Z,20.9
2022-09-13T13:35:03.439Z,20.9
2022-09-13T13:40:03.470Z,20.9
2022-09-13T13:45:03.866Z,20.9
2022-09-13T13:50:01.885Z,20.9
2022-09-13T13:55:02.104Z,20.9
2022-09-13T14:00:02.873Z,20.9
2022-09-13T14:05:03.784Z,20.9
2022-09-13T14:10:03.461Z,20.9
2022-09-13T14:15:03.733Z,20.9
2022-09-13T14:20:01.922Z,20.9
2022-09-13T14:25:02.607Z,20.9
2022-09-13T14:30:03.219Z,20.9
2022-09-13T14:35:03.726Z,20.9
2022-09-13T14:40:03.336Z,20.9
2022-09-13T14:45:03.541Z,20.9
2022-09-13T14:50:02.920Z,20.9
2022-09-13T14:55:05.039Z,20.9
2022-09-13T15:00:02.248Z,20.9
2022-09-13T15:05:03.117Z,20.9
2022-09-13T15:10:03.036Z,20.9
2022-09-13T15:15:04.249Z,20.9
2022-09-13T15:20:02.769Z,20.9
2022-09-13T15:25:01.937Z,20.9
2022-09-13T15:30:02.221Z,20.9
2022-09-13T15:35:03.176Z,20.9
2022-09-13T15:40:03.113Z,20.9
2022-09-13T15:45:03.613Z,20.9
2022-09-13T15:50:02.654Z,20.9
2022-09-13T15:55:02.834Z,20.9
2022-09-13T16:00:06.313Z,20.9
2022-09-13T16:05:02.911Z,20.9
2022-09-13T16:10:03.838Z,20.9
2022-09-13T16:15:03.537Z,20.9
2022-09-13T16:20:02.669Z,20.9
2022-09-13T16:25:02.808Z,20.9
2022-09-13T16:30:02.262Z,20.9
2022-09-13T16:35:03.004Z,20.9
2022-09-13T16:40:03.229Z,20.9
2022-09-13T16:45:05.105Z,20.9
2022-09-13T16:50:02.152Z,20.9
2022-09-13T16:55:02.139Z,20.9
2022-09-13T17:00:02.440Z,20.9
2022-09-13T17:05:03.373Z,20.9
2022-09-13T17:10:03.757Z,20.9
2022-09-13T17:15:04.201Z,20.9
2022-09-13T17:20:03.411Z,20.9
2022-09-13T17:25:02.012Z,20.9
2022-09-13T17:30:02.530Z,20.9
2022-09-13T17:35:03.095Z,20.9
2022-09-13T17:40:03.409Z,20.9
2022-09-13T17:45:03.795Z,20.9
2022-09-13T17:50:02.572Z,20.9
2022-09-13T17:55:02.605Z,20.9
2022-09-13T18:00:03.451Z,20.9
2022-09-13T18:05:05.868Z,20.9
2022-09-13T18:10:03.254Z,20.9
2022-09-13T18:15:03.493Z,20.9
2022-09-13T18:20:02.562Z,20.9
2022-09-13T18:25:02.620Z,20.9
2022-09-13T18:30:03.826Z,20.9
2022-09-13T18:35:03.021Z,20.9
2022-09-13T18:40:03.610Z,20.9
2022-09-13T18:45:04.085Z,20.9
2022-09-13T18:50:02.428Z,20.9
2022-09-13T18:55:02.819Z,20.9
2022-09-13T19:00:01.866Z,20.9
2022-09-13T19:05:06.489Z,20.9
2022-09-13T19:10:03.347Z,20.9
2022-09-13T19:15:03.549Z,20.9
2022-09-13T19:20:02.532Z,20.9
2022-09-13T19:25:02.577Z,20.9
2022-09-13T19:30:02.955Z,20.9
2022-09-13T19:35:02.744Z,20.9
2022-09-13T19:40:02.893Z,20.9
2022-09-13T19:45:03.282Z,20.9
2022-09-13T19:50:02.621Z,20.9
2022-09-13T19:55:02.558Z,20.9
2022-09-13T20:00:02.657Z,20.9
2022-09-13T20:05:03.190Z,20.9
2022-09-13T20:10:03.026Z,20.9
2022-09-13T20:15:03.477Z,20.9
2022-09-13T20:20:02.727Z,20.9
2022-09-13T20:25:02.862Z,20.9
2022-09-13T20:30:02.228Z,20.9
2022-09-13T20:35:02.874Z,20.9
2022-09-13T20:40:03.194Z,20.9
2022-09-13T20:45:03.184Z,20.9
2022-09-13T20:50:02.408Z,20.9
2022-09-13T20:55:02.693Z,20.9
2022-09-13T21:00:02.967Z,20.9
2022-09-13T21:05:02.848Z,20.9
2022-09-13T21:10:03.069Z,20.9
2022-09-13T21:15:04.048Z,20.9
2022-09-13T21:20:02.705Z,20.9
2022-09-13T21:25:07.587Z,20.9
2022-09-13T21:30:04.002Z,20.9
2022-09-13T21:35:03.759Z,20.9
2022-09-13T21:40:03.775Z,20.9
2022-09-13T21:45:03.581Z,20.9
2022-09-13T21:50:02.162Z,20.9
2022-09-13T21:55:02.197Z,20.9
2022-09-13T22:00:02.851Z,20.9
2022-09-13T22:05:02.759Z,20.9
2022-09-13T22:10:02.081Z,20.9
2022-09-13T22:15:04.047Z,20.9
2022-09-13T22:20:02.527Z,20.9
2022-09-13T22:25:02.821Z,20.9
2022-09-13T22:30:02.265Z,20.9
2022-09-13T22:35:02.486Z,20.9
2022-09-13T22:40:01.902Z,20.9
2022-09-13T22:45:03.149Z,20.9
2022-09-13T22:50:02.234Z,20.9
2022-09-13T22:55:02.750Z,20.9
2022-09-13T23:00:05.779Z,20.9
2022-09-13T23:05:01.913Z,20.9
2022-09-13T23:10:02.356Z,20.9
2022-09-13T23:15:02.622Z,20.9
2022-09-13T23:20:02.984Z,20.9
2022-09-13T23:25:02.622Z,20.9
2022-09-13T23:30:02.517Z,20.9
2022-09-13T23:35:02.706Z,20.9
2022-09-13T23:40:01.852Z,20.9
2022-09-13T23:45:04.892Z,20.9
2022-09-13T23:50:02.680Z,20.9
2022-09-13T23:55:02.223Z,20.9
